createdAt,value
2019-05-09T00:01:14.218Z,1.67
2019-05-09T00:03:44.288Z,1.70
2019-05-09T00:06:13.540Z,1.47
2019-05-09T00:08:44.202Z,1.60
2019-05-09T00:11:14.448Z,1.37
2019-05-09T00:13:43.509Z,1.50
2019-05-09T00:16:14.225Z,1.67
2019-05-09T00:18:43.902Z,1.60
2019-05-09T00:21:40.112Z,1.70
2019-05-09T00:24:08.494Z,1.53
2019-05-09T00:26:36.470Z,1.60
2019-05-09T00:29:09.608Z,2.00
2019-05-09T00:31:55.867Z,1.60
2019-05-09T00:34:46.364Z,1.60
2019-05-09T00:37:14.280Z,1.70
2019-05-09T00:39:43.439Z,1.60
2019-05-09T00:42:13.715Z,1.80
2019-05-09T00:44:43.978Z,1.77
2019-05-09T00:47:23.951Z,1.80
2019-05-09T00:49:54.116Z,1.77
2019-05-09T00:52:23.475Z,1.70
2019-05-09T00:54:53.155Z,1.93
2019-05-09T00:57:33.503Z,2.07
2019-05-09T01:00:04.070Z,1.97
2019-05-09T01:02:34.042Z,1.80
2019-05-09T01:05:04.187Z,2.10
2019-05-09T01:07:33.656Z,1.80
2019-05-09T01:10:03.979Z,1.47
2019-05-09T01:12:33.985Z,1.77
2019-05-09T01:15:03.338Z,1.90
2019-05-09T01:17:33.524Z,2.00
2019-05-09T01:20:03.392Z,1.70
2019-05-09T01:22:33.100Z,1.90
2019-05-09T01:25:03.981Z,1.70
2019-05-09T01:27:33.811Z,1.60
2019-05-09T01:30:04.323Z,1.80
2019-05-09T01:32:49.600Z,1.87
2019-05-09T01:35:17.809Z,1.80
2019-05-09T01:37:45.736Z,1.80
2019-05-09T01:40:13.835Z,1.83
2019-05-09T01:42:43.259Z,1.80
2019-05-09T01:45:11.617Z,1.73
2019-05-09T01:47:39.993Z,2.17
2019-05-09T01:50:08.574Z,1.87
2019-05-09T01:52:36.931Z,1.70
2019-05-09T01:55:05.537Z,1.70
2019-05-09T01:57:33.884Z,1.77
2019-05-09T02:00:04.161Z,1.80
2019-05-09T02:02:33.810Z,1.87
2019-05-09T02:05:04.097Z,1.47
2019-05-09T02:07:33.236Z,1.77
2019-05-09T02:10:03.390Z,1.50
2019-05-09T02:12:33.803Z,1.60
2019-05-09T02:15:16.447Z,1.90
2019-05-09T02:18:09.694Z,1.70
2019-05-09T02:20:38.022Z,1.43
2019-05-09T02:23:07.396Z,1.70
2019-05-09T02:25:35.384Z,1.40
2019-05-09T02:28:03.887Z,1.50
2019-05-09T02:30:35.724Z,1.87
2019-05-09T02:33:04.852Z,1.70
2019-05-09T02:35:39.577Z,1.83
2019-05-09T02:38:02.729Z,1.50
2019-05-09T02:40:30.669Z,1.43
2019-05-09T02:42:59.136Z,1.60
2019-05-09T02:45:30.774Z,1.63
2019-05-09T02:47:59.099Z,1.37
2019-05-09T02:50:28.559Z,1.70
2019-05-09T02:52:58.997Z,1.63
2019-05-09T02:55:28.861Z,1.70
2019-05-09T02:57:59.221Z,1.60
2019-05-09T03:00:53.079Z,1.80
2019-05-09T03:03:29.265Z,1.67
2019-05-09T03:05:59.710Z,1.47
2019-05-09T03:08:29.601Z,1.50
2019-05-09T03:11:00.500Z,1.70
2019-05-09T03:13:29.209Z,1.63
2019-05-09T03:16:01.698Z,1.50
2019-05-09T03:18:29.660Z,1.80
2019-05-09T03:21:30.001Z,1.77
2019-05-09T03:23:59.149Z,1.80
2019-05-09T03:26:31.622Z,1.60
2019-05-09T03:29:24.733Z,1.63
2019-05-09T03:31:53.635Z,1.80
2019-05-09T03:34:21.803Z,1.73
2019-05-09T03:36:49.860Z,2.03
2019-05-09T03:39:18.532Z,1.60
2019-05-09T03:41:48.687Z,1.60
2019-05-09T03:44:17.851Z,1.57
2019-05-09T03:47:03.805Z,1.67
2019-05-09T03:49:31.837Z,1.70
2019-05-09T03:51:59.807Z,1.77
2019-05-09T03:54:28.295Z,1.67
2019-05-09T03:57:04.946Z,1.70
2019-05-09T03:59:32.957Z,1.70
2019-05-09T04:02:00.878Z,2.10
2019-05-09T04:04:28.731Z,1.70
2019-05-09T04:06:58.040Z,1.67
2019-05-09T04:09:27.382Z,1.70
2019-05-09T04:11:55.371Z,2.00
2019-05-09T04:14:28.044Z,1.80
2019-05-09T04:16:57.362Z,2.00
2019-05-09T04:19:27.414Z,1.73
2019-05-09T04:21:57.370Z,1.80
2019-05-09T04:24:27.948Z,1.80
2019-05-09T04:27:01.784Z,1.80
2019-05-09T04:29:29.778Z,1.90
2019-05-09T04:31:57.778Z,2.07
2019-05-09T04:34:27.506Z,1.50
2019-05-09T04:36:57.419Z,2.10
2019-05-09T04:39:25.252Z,1.90
2019-05-09T04:41:55.117Z,1.70
2019-05-09T04:44:30.914Z,1.80
2019-05-09T04:47:03.156Z,1.90
2019-05-09T04:49:30.002Z,1.83
2019-05-09T04:51:58.477Z,2.10
2019-05-09T04:54:28.020Z,1.80
2019-05-09T04:56:57.434Z,2.00
2019-05-09T04:59:28.148Z,2.10
2019-05-09T05:02:02.493Z,2.20
2019-05-09T05:04:30.391Z,2.20
2019-05-09T05:06:58.719Z,2.30
2019-05-09T05:09:27.719Z,2.50
2019-05-09T05:11:58.060Z,1.90
2019-05-09T05:14:32.018Z,2.53
2019-05-09T05:17:07.547Z,2.33
2019-05-09T05:19:31.486Z,2.20
2019-05-09T05:22:14.413Z,2.13
2019-05-09T05:24:48.810Z,2.50
2019-05-09T05:27:18.829Z,2.40
2019-05-09T05:29:47.615Z,2.70
2019-05-09T05:32:23.533Z,2.70
2019-05-09T05:35:25.511Z,3.10
2019-05-09T05:37:53.588Z,2.83
2019-05-09T05:40:21.692Z,2.30
2019-05-09T05:42:49.723Z,2.27
2019-05-09T05:45:18.325Z,2.10
2019-05-09T05:47:57.620Z,2.73
2019-05-09T05:50:27.912Z,2.30
2019-05-09T05:52:57.615Z,2.10
2019-05-09T05:55:27.322Z,2.23
2019-05-09T05:57:54.732Z,2.13
2019-05-09T06:00:24.708Z,1.93
2019-05-09T06:02:52.709Z,1.90
2019-05-09T06:05:20.680Z,2.03
2019-05-09T06:07:48.647Z,2.00
2019-05-09T06:10:18.686Z,1.43
2019-05-09T06:12:48.194Z,1.50
2019-05-09T06:15:18.294Z,1.43
2019-05-09T06:17:48.466Z,1.37
2019-05-09T06:20:17.752Z,1.40
2019-05-09T06:22:47.683Z,1.70
2019-05-09T06:25:20.177Z,1.60
2019-05-09T06:27:45.273Z,1.20
2019-05-09T06:30:18.465Z,1.00
2019-05-09T06:32:47.745Z,1.50
2019-05-09T06:35:21.987Z,2.20
2019-05-09T06:37:49.948Z,2.20
2019-05-09T06:40:21.536Z,2.10
2019-05-09T06:42:49.905Z,2.10
2019-05-09T06:45:43.235Z,2.10
2019-05-09T06:48:12.081Z,2.00
2019-05-09T06:50:39.986Z,1.90
2019-05-09T06:53:08.178Z,1.70
2019-05-09T06:55:38.365Z,1.90
2019-05-09T06:58:23.886Z,1.90
2019-05-09T07:00:58.429Z,2.20
2019-05-09T07:03:28.324Z,2.17
2019-05-09T07:06:17.626Z,2.10
2019-05-09T07:08:51.592Z,2.00
2019-05-09T07:11:19.674Z,1.90
2019-05-09T07:13:47.694Z,1.60
2019-05-09T07:16:18.462Z,1.57
2019-05-09T07:18:45.613Z,1.70
2019-05-09T07:21:13.554Z,1.60
2019-05-09T07:23:41.457Z,1.60
2019-05-09T07:26:10.786Z,1.50
2019-05-09T07:28:39.215Z,1.40
2019-05-09T07:31:28.394Z,1.73
2019-05-09T07:34:14.288Z,1.47
2019-05-09T07:36:42.246Z,1.80
2019-05-09T07:39:10.163Z,1.70
2019-05-09T07:41:38.515Z,1.30
2019-05-09T07:44:07.566Z,1.53
2019-05-09T07:46:40.523Z,1.50
2019-05-09T07:49:11.685Z,1.33
2019-05-09T07:51:39.707Z,1.67
2019-05-09T07:54:20.631Z,1.90
2019-05-09T07:56:37.924Z,1.50
2019-05-09T07:59:07.648Z,1.60
2019-05-09T08:01:38.275Z,1.40
2019-05-09T08:04:07.525Z,1.50
2019-05-09T08:06:37.816Z,1.40
2019-05-09T08:09:08.401Z,1.50
2019-05-09T08:11:37.661Z,1.30
2019-05-09T08:14:34.154Z,1.60
2019-05-09T08:17:00.876Z,1.63
2019-05-09T08:19:28.701Z,1.20
2019-05-09T08:21:57.598Z,1.60
2019-05-09T08:24:27.826Z,0.80
2019-05-09T08:26:57.819Z,0.57
2019-05-09T08:29:24.957Z,0.70
2019-05-09T08:31:52.931Z,0.60
2019-05-09T08:34:20.823Z,0.60
2019-05-09T08:36:48.755Z,0.57
2019-05-09T08:39:18.552Z,0.70
2019-05-09T08:41:48.490Z,1.00
2019-05-09T08:44:18.639Z,0.87
2019-05-09T08:46:48.091Z,0.60
2019-05-09T08:49:18.266Z,0.63
2019-05-09T08:52:09.238Z,0.77
2019-05-09T08:54:41.047Z,0.50
2019-05-09T08:57:09.112Z,0.60
2019-05-09T08:59:38.241Z,0.40
2019-05-09T09:02:16.578Z,0.50
2019-05-09T09:04:38.421Z,0.50
2019-05-09T09:07:08.416Z,0.40
2019-05-09T09:09:37.870Z,0.40
2019-05-09T09:12:23.049Z,0.50
2019-05-09T09:15:13.245Z,0.60
2019-05-09T09:17:39.882Z,0.70
2019-05-09T09:20:09.282Z,0.50
2019-05-09T09:22:37.711Z,0.70
2019-05-09T09:25:07.637Z,0.70
2019-05-09T09:27:37.990Z,0.60
2019-05-09T09:30:17.748Z,0.80
2019-05-09T09:32:38.530Z,0.63
2019-05-09T09:35:07.888Z,0.77
2019-05-09T09:37:47.553Z,0.70
2019-05-09T09:40:08.345Z,0.43
2019-05-09T09:42:39.387Z,0.60
2019-05-09T09:45:07.658Z,0.60
2019-05-09T09:47:39.457Z,0.60
2019-05-09T09:50:05.591Z,0.40
2019-05-09T09:52:34.519Z,0.50
2019-05-09T09:55:02.679Z,0.50
2019-05-09T09:57:30.621Z,0.77
2019-05-09T10:00:18.074Z,0.70
2019-05-09T10:02:48.188Z,0.70
2019-05-09T10:05:18.161Z,0.67
2019-05-09T10:07:47.673Z,0.70
2019-05-09T10:10:31.849Z,0.63
2019-05-09T10:13:03.818Z,0.70
2019-05-09T10:15:58.468Z,0.63
2019-05-09T10:18:45.279Z,0.70
2019-05-09T10:21:19.912Z,0.60
2019-05-09T10:23:48.333Z,0.60
2019-05-09T10:26:17.762Z,0.70
2019-05-09T10:28:48.389Z,0.67
2019-05-09T10:31:15.824Z,0.80
2019-05-09T10:33:43.846Z,0.70
2019-05-09T10:36:11.946Z,0.90
2019-05-09T10:38:39.849Z,1.03
2019-05-09T10:41:11.128Z,0.80
2019-05-09T10:43:57.876Z,1.00
2019-05-09T10:46:55.920Z,1.00
2019-05-09T10:49:16.672Z,0.87
2019-05-09T10:51:44.733Z,1.00
2019-05-09T10:54:12.661Z,0.80
2019-05-09T10:56:40.724Z,0.70
2019-05-09T10:59:08.647Z,1.20
2019-05-09T11:01:38.117Z,1.07
2019-05-09T11:04:08.284Z,1.17
2019-05-09T11:06:38.227Z,1.30
2019-05-09T11:09:08.722Z,1.33
2019-05-09T11:11:36.941Z,1.50
2019-05-09T11:14:32.169Z,1.37
2019-05-09T11:16:54.247Z,1.70
2019-05-09T11:19:18.473Z,2.00
2019-05-09T11:21:47.823Z,1.90
2019-05-09T11:24:18.495Z,1.93
2019-05-09T11:26:47.981Z,2.07
2019-05-09T11:29:15.542Z,1.90
2019-05-09T11:31:43.479Z,1.80
2019-05-09T11:34:11.475Z,2.10
2019-05-09T11:36:39.529Z,1.90
2019-05-09T11:39:10.770Z,2.10
2019-05-09T11:41:38.330Z,1.77
2019-05-09T11:44:08.557Z,2.20
2019-05-09T11:46:38.207Z,2.00
2019-05-09T11:49:08.242Z,2.00
2019-05-09T11:51:36.467Z,1.60
2019-05-09T11:54:04.395Z,1.80
2019-05-09T11:56:32.415Z,1.47
2019-05-09T11:59:00.657Z,1.70
2019-05-09T12:01:29.286Z,1.87
2019-05-09T12:03:57.905Z,1.50
2019-05-09T12:06:28.514Z,1.60
2019-05-09T12:08:55.696Z,1.80
2019-05-09T12:11:23.729Z,1.60
2019-05-09T12:13:51.711Z,1.87
2019-05-09T12:16:19.762Z,2.20
2019-05-09T12:18:48.754Z,1.80
2019-05-09T12:21:19.210Z,2.10
2019-05-09T12:23:48.851Z,2.00
2019-05-09T12:26:18.067Z,2.00
2019-05-09T12:28:48.459Z,2.13
2019-05-09T12:31:18.113Z,2.40
2019-05-09T12:33:48.411Z,2.40
2019-05-09T12:36:15.758Z,1.87
2019-05-09T12:38:46.044Z,1.70
2019-05-09T12:41:13.349Z,1.83
2019-05-09T12:43:41.319Z,1.57
2019-05-09T12:46:09.317Z,1.83
2019-05-09T12:48:37.280Z,1.53
2019-05-09T12:51:05.391Z,1.60
2019-05-09T12:53:34.065Z,1.70
2019-05-09T12:56:02.116Z,1.67
2019-05-09T12:58:30.135Z,1.70
2019-05-09T13:00:58.953Z,1.97
2019-05-09T13:03:28.148Z,1.87
2019-05-09T13:05:57.475Z,1.50
2019-05-09T13:08:27.645Z,1.63
2019-05-09T13:11:07.801Z,1.70
2019-05-09T13:13:34.487Z,1.60
2019-05-09T13:16:45.607Z,1.70
2019-05-09T13:19:08.129Z,1.30
2019-05-09T13:21:38.316Z,1.63
2019-05-09T13:24:08.070Z,1.70
2019-05-09T13:26:38.253Z,1.50
2019-05-09T13:29:07.872Z,1.63
2019-05-09T13:31:39.221Z,1.57
2019-05-09T13:34:07.979Z,1.70
2019-05-09T13:36:35.674Z,1.50
2019-05-09T13:39:08.378Z,2.00
2019-05-09T13:41:37.603Z,1.70
2019-05-09T13:44:10.844Z,1.57
2019-05-09T13:46:35.451Z,1.80
2019-05-09T13:49:11.525Z,1.43
2019-05-09T13:51:33.313Z,1.53
2019-05-09T13:54:01.334Z,1.63
2019-05-09T13:56:29.480Z,1.77
2019-05-09T13:58:58.298Z,1.70
2019-05-09T14:01:26.419Z,1.60
2019-05-09T14:03:54.441Z,1.33
2019-05-09T14:06:22.359Z,1.50
2019-05-09T14:08:50.314Z,1.63
2019-05-09T14:11:19.370Z,1.53
2019-05-09T14:13:48.729Z,1.70
2019-05-09T14:16:24.666Z,1.70
2019-05-09T14:18:55.671Z,1.50
2019-05-09T14:21:24.587Z,1.60
2019-05-09T14:24:06.720Z,1.43
2019-05-09T14:26:22.437Z,1.70
2019-05-09T14:28:50.451Z,1.50
2019-05-09T14:31:18.859Z,1.53
2019-05-09T14:33:47.620Z,1.60
2019-05-09T14:36:15.841Z,1.77
2019-05-09T14:38:43.910Z,1.50
2019-05-09T14:41:12.591Z,1.50
2019-05-09T14:43:40.609Z,1.83
2019-05-09T14:46:08.594Z,1.40
2019-05-09T14:48:36.628Z,1.50
2019-05-09T14:51:04.534Z,1.70
2019-05-09T14:53:32.475Z,1.60
2019-05-09T14:56:00.743Z,2.00
2019-05-09T14:58:28.954Z,1.57
2019-05-09T15:01:00.616Z,1.53
2019-05-09T15:03:27.787Z,1.50
2019-05-09T15:05:57.408Z,1.77
2019-05-09T15:08:27.821Z,1.80
2019-05-09T15:11:01.250Z,1.60
2019-05-09T15:13:29.220Z,1.73
2019-05-09T15:16:33.792Z,1.90
2019-05-09T15:19:01.790Z,1.63
2019-05-09T15:21:29.810Z,1.80
2019-05-09T15:23:58.631Z,1.80
2019-05-09T15:26:27.706Z,1.47
2019-05-09T15:28:57.787Z,2.00
2019-05-09T15:31:28.302Z,1.80
2019-05-09T15:33:55.283Z,1.40
2019-05-09T15:36:23.270Z,2.00
2019-05-09T15:38:51.201Z,1.80
2019-05-09T15:41:19.185Z,1.80
2019-05-09T15:43:48.529Z,1.53
2019-05-09T15:46:31.460Z,1.73
2019-05-09T15:48:59.421Z,1.60
2019-05-09T15:51:27.927Z,1.57
2019-05-09T15:53:57.762Z,1.57
2019-05-09T15:56:25.886Z,1.70
2019-05-09T15:58:53.825Z,1.67
2019-05-09T16:01:21.857Z,1.60
2019-05-09T16:03:49.979Z,1.70
2019-05-09T16:06:19.807Z,1.47
2019-05-09T16:08:47.917Z,1.50
2019-05-09T16:11:18.099Z,1.57
2019-05-09T16:13:47.898Z,1.50
2019-05-09T16:16:47.859Z,1.50
2019-05-09T16:19:16.278Z,1.40
2019-05-09T16:21:44.185Z,1.50
2019-05-09T16:24:12.224Z,1.70
2019-05-09T16:26:40.139Z,1.37
2019-05-09T16:29:08.635Z,1.47
2019-05-09T16:31:38.838Z,1.67
2019-05-09T16:34:09.446Z,1.60
2019-05-09T16:36:38.743Z,1.50
2019-05-09T16:39:07.376Z,1.87
2019-05-09T16:41:35.473Z,1.83
2019-05-09T16:44:03.972Z,1.87
2019-05-09T16:46:31.958Z,1.87
2019-05-09T16:49:00.678Z,1.77
2019-05-09T16:51:28.737Z,1.90
2019-05-09T16:53:58.440Z,2.33
2019-05-09T16:56:28.735Z,2.03
2019-05-09T16:58:57.839Z,2.60
2019-05-09T17:01:28.223Z,2.20
2019-05-09T17:03:57.479Z,2.50
2019-05-09T17:06:27.486Z,2.00
2019-05-09T17:08:57.721Z,2.33
2019-05-09T17:11:27.660Z,2.20
2019-05-09T17:13:58.163Z,2.00
2019-05-09T17:17:05.144Z,2.07
2019-05-09T17:19:33.218Z,2.10
2019-05-09T17:22:12.905Z,2.40
2019-05-09T17:24:42.031Z,2.13
2019-05-09T17:27:10.375Z,2.30
2019-05-09T17:29:38.499Z,2.50
2019-05-09T17:32:07.740Z,2.20
2019-05-09T17:34:38.119Z,2.80
2019-05-09T17:37:07.903Z,2.53
2019-05-09T17:39:35.696Z,2.37
2019-05-09T17:42:03.838Z,2.60
2019-05-09T17:44:31.925Z,3.20
2019-05-09T17:46:59.916Z,3.20
2019-05-09T17:49:28.213Z,3.20
2019-05-09T17:51:58.397Z,2.47
2019-05-09T17:54:26.001Z,2.70
2019-05-09T17:56:54.001Z,2.70
2019-05-09T17:59:22.067Z,3.53
2019-05-09T18:01:50.059Z,2.93
2019-05-09T18:04:18.179Z,2.90
2019-05-09T18:06:48.672Z,2.77
2019-05-09T18:09:18.784Z,2.80
2019-05-09T18:11:48.143Z,2.90
2019-05-09T18:14:38.276Z,3.50
2019-05-09T18:17:13.820Z,3.70
2019-05-09T18:19:41.638Z,4.10
2019-05-09T18:22:09.815Z,4.17
2019-05-09T18:24:37.812Z,4.47
2019-05-09T18:27:07.654Z,4.40
2019-05-09T18:29:37.856Z,7.20
2019-05-09T18:32:30.672Z,7.20
2019-05-09T18:35:18.121Z,6.33
2019-05-09T18:37:48.170Z,6.20
2019-05-09T18:40:17.972Z,6.03
2019-05-09T18:42:47.584Z,5.97
2019-05-09T18:45:17.540Z,5.67
2019-05-09T18:47:48.005Z,6.77
2019-05-09T18:50:16.096Z,23.67
2019-05-09T18:52:44.109Z,11.87
2019-05-09T18:55:13.774Z,10.20
2019-05-09T18:57:41.748Z,8.37
2019-05-09T19:00:13.718Z,6.20
2019-05-09T19:02:41.833Z,8.40
2019-05-09T19:05:12.973Z,8.63
2019-05-09T19:07:40.378Z,5.83
2019-05-09T19:10:09.569Z,5.60
2019-05-09T19:12:37.647Z,5.63
2019-05-09T19:16:04.919Z,5.03
2019-05-09T19:18:48.749Z,5.50
2019-05-09T19:21:30.478Z,6.67
2019-05-09T19:23:58.597Z,4.87
2019-05-09T19:26:39.810Z,4.30
2019-05-09T19:29:12.536Z,5.00
2019-05-09T19:31:41.377Z,7.33
2019-05-09T19:34:10.124Z,8.03
2019-05-09T19:36:42.145Z,8.43
2019-05-09T19:39:14.973Z,7.20
2019-05-09T19:41:43.127Z,8.13
2019-05-09T19:44:16.240Z,8.37
2019-05-09T19:46:48.781Z,10.83
2019-05-09T19:49:16.859Z,18.27
2019-05-09T19:51:44.972Z,13.27
2019-05-09T19:54:12.931Z,9.80
2019-05-09T19:56:40.847Z,8.30
2019-05-09T19:59:08.889Z,7.03
2019-05-09T20:01:36.890Z,6.13
2019-05-09T20:04:06.416Z,5.40
2019-05-09T20:06:34.369Z,5.17
2019-05-09T20:09:04.739Z,5.63
2019-05-09T20:11:52.130Z,5.53
2019-05-09T20:15:03.705Z,5.43
2019-05-09T20:17:30.916Z,6.87
2019-05-09T20:19:58.945Z,6.73
2019-05-09T20:22:26.928Z,6.30
2019-05-09T20:24:54.944Z,6.20
2019-05-09T20:28:09.256Z,6.50
2019-05-09T20:30:35.380Z,6.20
2019-05-09T20:33:03.457Z,6.53
2019-05-09T20:35:31.391Z,7.23
2019-05-09T20:37:59.327Z,6.40
2019-05-09T20:40:27.251Z,6.43
2019-05-09T20:42:55.316Z,8.63
2019-05-09T20:45:23.337Z,8.80
2019-05-09T20:47:51.329Z,7.23
2019-05-09T20:50:19.373Z,5.03
2019-05-09T20:52:47.385Z,5.37
2019-05-09T20:55:15.517Z,4.67
2019-05-09T20:57:43.832Z,4.50
2019-05-09T21:00:12.389Z,4.00
2019-05-09T21:02:40.291Z,4.87
2019-05-09T21:05:08.504Z,10.47
2019-05-09T21:07:36.535Z,6.43
2019-05-09T21:10:05.105Z,5.33
2019-05-09T21:12:33.080Z,4.50
2019-05-09T21:15:34.703Z,4.20
2019-05-09T21:18:02.086Z,3.93
2019-05-09T21:20:30.049Z,4.00
2019-05-09T21:22:58.002Z,4.13
2019-05-09T21:25:25.950Z,3.67
2019-05-09T21:27:53.935Z,3.77
2019-05-09T21:30:22.016Z,4.03
2019-05-09T21:32:49.857Z,3.33
2019-05-09T21:35:17.882Z,3.60
2019-05-09T21:37:45.913Z,3.90
2019-05-09T21:40:14.146Z,3.77
2019-05-09T21:42:42.047Z,3.70
2019-05-09T21:45:11.286Z,3.87
2019-05-09T21:47:39.987Z,3.57
2019-05-09T21:50:08.574Z,3.63
2019-05-09T21:52:36.469Z,3.70
2019-05-09T21:55:04.647Z,3.70
2019-05-09T21:57:32.534Z,3.40
2019-05-09T22:00:00.734Z,3.37
2019-05-09T22:02:28.986Z,3.70
2019-05-09T22:04:56.997Z,3.27
2019-05-09T22:07:30.194Z,3.57
2019-05-09T22:09:58.816Z,3.47
2019-05-09T22:12:34.966Z,4.60
2019-05-09T22:15:04.127Z,5.43
2019-05-09T22:17:40.851Z,5.53
2019-05-09T22:20:09.760Z,5.83
2019-05-09T22:22:37.968Z,5.63
2019-05-09T22:25:06.771Z,5.77
2019-05-09T22:27:34.980Z,5.00
2019-05-09T22:30:04.537Z,5.03
2019-05-09T22:32:32.632Z,4.70
2019-05-09T22:35:00.695Z,4.73
2019-05-09T22:37:28.565Z,5.50
2019-05-09T22:39:56.520Z,5.27
2019-05-09T22:42:24.525Z,5.43
2019-05-09T22:44:52.641Z,4.90
2019-05-09T22:47:20.533Z,5.00
2019-05-09T22:49:52.194Z,5.00
2019-05-09T22:52:18.452Z,5.30
2019-05-09T22:54:47.371Z,5.23
2019-05-09T22:57:15.269Z,5.20
2019-05-09T22:59:43.207Z,4.37
2019-05-09T23:02:11.316Z,4.20
2019-05-09T23:04:39.470Z,4.30
2019-05-09T23:07:07.424Z,4.07
2019-05-09T23:09:35.738Z,3.83
2019-05-09T23:12:03.759Z,4.20
2019-05-09T23:14:31.794Z,4.20
2019-05-09T23:17:00.420Z,4.40
2019-05-09T23:19:28.665Z,4.00
2019-05-09T23:21:56.904Z,3.90
2019-05-09T23:24:28.845Z,4.03
2019-05-09T23:26:57.199Z,3.47
2019-05-09T23:29:25.293Z,4.13
2019-05-09T23:32:03.406Z,3.50
2019-05-09T23:34:31.454Z,3.63
2019-05-09T23:36:59.859Z,3.00
2019-05-09T23:39:30.441Z,3.47
2019-05-09T23:41:58.525Z,3.17
2019-05-09T23:44:26.880Z,3.00
2019-05-09T23:46:54.877Z,3.20
2019-05-09T23:49:22.971Z,2.80
2019-05-09T23:51:51.408Z,3.07
2019-05-09T23:54:47.779Z,2.90
2019-05-09T23:57:27.560Z,3.43
